sensor_id;sensor_type;location;lat;lon;timestamp;temperature;humidity
16521;DHT22;8373;48.110;11.522;2023-04-08T00:02:23;9.50;68.60
16521;DHT22;8373;48.110;11.522;2023-04-08T00:04:50;9.50;69.00
16521;DHT22;8373;48.110;11.522;2023-04-08T00:07:17;9.40;69.00
16521;DHT22;8373;48.110;11.522;2023-04-08T00:09:44;9.40;69.50
16521;DHT22;8373;48.110;11.522;2023-04-08T00:12:12;9.40;69.90
16521;DHT22;8373;48.110;11.522;2023-04-08T00:14:39;9.40;70.00
16521;DHT22;8373;48.110;11.522;2023-04-08T00:17:06;9.40;69.90
16521;DHT22;8373;48.110;11.522;2023-04-08T00:19:33;9.40;70.00
16521;DHT22;8373;48.110;11.522;2023-04-08T00:22:00;9.40;70.20
16521;DHT22;8373;48.110;11.522;2023-04-08T00:24:28;9.30;70.30
16521;DHT22;8373;48.110;11.522;2023-04-08T00:26:55;9.30;70.50
16521;DHT22;8373;48.110;11.522;2023-04-08T00:29:23;9.20;70.70
16521;DHT22;8373;48.110;11.522;2023-04-08T00:31:50;9.20;71.00
16521;DHT22;8373;48.110;11.522;2023-04-08T00:34:17;9.20;71.20
16521;DHT22;8373;48.110;11.522;2023-04-08T00:36:44;9.20;71.40
16521;DHT22;8373;48.110;11.522;2023-04-08T00:39:11;9.10;71.50
16521;DHT22;8373;48.110;11.522;2023-04-08T00:41:38;9.10;71.70
16521;DHT22;8373;48.110;11.522;2023-04-08T00:44:05;9.10;71.90
16521;DHT22;8373;48.110;11.522;2023-04-08T00:46:37;9.10;71.90
16521;DHT22;8373;48.110;11.522;2023-04-08T00:49:04;9.10;71.90
16521;DHT22;8373;48.110;11.522;2023-04-08T00:51:32;9.10;72.10
16521;DHT22;8373;48.110;11.522;2023-04-08T00:54:01;9.10;72.30
16521;DHT22;8373;48.110;11.522;2023-04-08T00:56:29;9.10;72.40
16521;DHT22;8373;48.110;11.522;2023-04-08T00:58:58;9.10;72.40
16521;DHT22;8373;48.110;11.522;2023-04-08T01:01:32;9.00;72.40
16521;DHT22;8373;48.110;11.522;2023-04-08T01:04:11;8.90;72.80
16521;DHT22;8373;48.110;11.522;2023-04-08T01:06:41;8.80;73.20
16521;DHT22;8373;48.110;11.522;2023-04-08T01:09:12;8.90;73.50
16521;DHT22;8373;48.110;11.522;2023-04-08T01:11:43;8.90;73.40
16521;DHT22;8373;48.110;11.522;2023-04-08T01:14:11;8.90;73.30
16521;DHT22;8373;48.110;11.522;2023-04-08T01:16:41;8.80;73.30
16521;DHT22;8373;48.110;11.522;2023-04-08T01:19:16;8.80;73.50
16521;DHT22;8373;48.110;11.522;2023-04-08T01:21:47;8.80;73.70
16521;DHT22;8373;48.110;11.522;2023-04-08T01:24:19;8.70;73.80
16521;DHT22;8373;48.110;11.522;2023-04-08T01:26:50;8.80;74.20
16521;DHT22;8373;48.110;11.522;2023-04-08T01:29:18;8.80;74.10
16521;DHT22;8373;48.110;11.522;2023-04-08T01:31:46;8.70;74.00
16521;DHT22;8373;48.110;11.522;2023-04-08T01:34:14;8.70;74.40
16521;DHT22;8373;48.110;11.522;2023-04-08T01:36:43;8.70;74.50
16521;DHT22;8373;48.110;11.522;2023-04-08T01:39:11;8.60;74.50
16521;DHT22;8373;48.110;11.522;2023-04-08T01:41:39;8.60;74.90
16521;DHT22;8373;48.110;11.522;2023-04-08T01:44:09;8.60;75.00
16521;DHT22;8373;48.110;11.522;2023-04-08T01:46:38;8.50;75.20
16521;DHT22;8373;48.110;11.522;2023-04-08T01:49:07;8.50;75.70
16521;DHT22;8373;48.110;11.522;2023-04-08T01:51:35;8.50;75.80
16521;DHT22;8373;48.110;11.522;2023-04-08T01:54:03;8.50;75.70
16521;DHT22;8373;48.110;11.522;2023-04-08T01:56:32;8.50;75.80
16521;DHT22;8373;48.110;11.522;2023-04-08T01:59:04;8.50;75.70
16521;DHT22;8373;48.110;11.522;2023-04-08T02:01:34;8.40;75.70
16521;DHT22;8373;48.110;11.522;2023-04-08T02:04:02;8.40;76.10
16521;DHT22;8373;48.110;11.522;2023-04-08T02:06:29;8.30;76.30
16521;DHT22;8373;48.110;11.522;2023-04-08T02:08:58;8.30;76.60
16521;DHT22;8373;48.110;11.522;2023-04-08T02:11:25;8.30;76.80
16521;DHT22;8373;48.110;11.522;2023-04-08T02:13:53;8.30;76.90
16521;DHT22;8373;48.110;11.522;2023-04-08T02:16:22;8.30;77.10
16521;DHT22;8373;48.110;11.522;2023-04-08T02:18:59;8.30;77.20
16521;DHT22;8373;48.110;11.522;2023-04-08T02:21:32;8.30;77.00
16521;DHT22;8373;48.110;11.522;2023-04-08T02:24:04;8.30;77.00
16521;DHT22;8373;48.110;11.522;2023-04-08T02:26:33;8.30;77.00
16521;DHT22;8373;48.110;11.522;2023-04-08T02:29:03;8.30;77.00
16521;DHT22;8373;48.110;11.522;2023-04-08T02:31:31;8.30;77.00
16521;DHT22;8373;48.110;11.522;2023-04-08T02:34:01;8.30;77.20
16521;DHT22;8373;48.110;11.522;2023-04-08T02:36:28;8.30;77.30
16521;DHT22;8373;48.110;11.522;2023-04-08T02:38:57;8.30;77.30
16521;DHT22;8373;48.110;11.522;2023-04-08T02:41:27;8.30;77.50
16521;DHT22;8373;48.110;11.522;2023-04-08T02:43:54;8.30;77.40
16521;DHT22;8373;48.110;11.522;2023-04-08T02:46:21;8.20;77.30
16521;DHT22;8373;48.110;11.522;2023-04-08T02:48:48;8.20;77.70
16521;DHT22;8373;48.110;11.522;2023-04-08T02:51:16;8.20;77.80
16521;DHT22;8373;48.110;11.522;2023-04-08T02:53:43;8.20;78.10
16521;DHT22;8373;48.110;11.522;2023-04-08T02:56:10;8.20;78.10
16521;DHT22;8373;48.110;11.522;2023-04-08T02:58:37;8.10;78.00
16521;DHT22;8373;48.110;11.522;2023-04-08T03:01:04;8.10;78.20
16521;DHT22;8373;48.110;11.522;2023-04-08T03:03:31;8.20;78.30
16521;DHT22;8373;48.110;11.522;2023-04-08T03:05:58;8.10;78.10
16521;DHT22;8373;48.110;11.522;2023-04-08T03:08:26;8.10;78.20
16521;DHT22;8373;48.110;11.522;2023-04-08T03:10:53;8.10;78.70
16521;DHT22;8373;48.110;11.522;2023-04-08T03:13:20;8.00;78.70
16521;DHT22;8373;48.110;11.522;2023-04-08T03:15:47;8.00;78.80
16521;DHT22;8373;48.110;11.522;2023-04-08T03:18:14;7.90;79.00
16521;DHT22;8373;48.110;11.522;2023-04-08T03:20:41;7.90;79.30
16521;DHT22;8373;48.110;11.522;2023-04-08T03:23:08;7.90;79.50
16521;DHT22;8373;48.110;11.522;2023-04-08T03:25:36;7.90;79.70
16521;DHT22;8373;48.110;11.522;2023-04-08T03:28:03;8.00;80.00
16521;DHT22;8373;48.110;11.522;2023-04-08T03:30:30;8.00;79.90
16521;DHT22;8373;48.110;11.522;2023-04-08T03:32:57;8.10;80.20
16521;DHT22;8373;48.110;11.522;2023-04-08T03:35:24;8.10;80.30
16521;DHT22;8373;48.110;11.522;2023-04-08T03:37:51;8.10;79.80
16521;DHT22;8373;48.110;11.522;2023-04-08T03:40:19;8.20;79.90
16521;DHT22;8373;48.110;11.522;2023-04-08T03:42:48;8.10;79.70
16521;DHT22;8373;48.110;11.522;2023-04-08T03:45:15;8.10;79.80
16521;DHT22;8373;48.110;11.522;2023-04-08T03:47:42;8.10;80.10
16521;DHT22;8373;48.110;11.522;2023-04-08T03:50:09;8.10;80.30
16521;DHT22;8373;48.110;11.522;2023-04-08T03:52:36;8.20;80.40
16521;DHT22;8373;48.110;11.522;2023-04-08T03:55:04;8.20;80.30
16521;DHT22;8373;48.110;11.522;2023-04-08T03:57:31;8.20;80.40
16521;DHT22;8373;48.110;11.522;2023-04-08T03:59:59;8.20;80.50
16521;DHT22;8373;48.110;11.522;2023-04-08T04:02:26;8.30;80.60
16521;DHT22;8373;48.110;11.522;2023-04-08T04:04:53;8.30;80.30
16521;DHT22;8373;48.110;11.522;2023-04-08T04:07:20;8.40;80.20
16521;DHT22;8373;48.110;11.522;2023-04-08T04:09:47;8.40;80.10
16521;DHT22;8373;48.110;11.522;2023-04-08T04:12:13;8.40;79.90
16521;DHT22;8373;48.110;11.522;2023-04-08T04:14:40;8.40;79.80
16521;DHT22;8373;48.110;11.522;2023-04-08T04:17:09;8.40;79.80
16521;DHT22;8373;48.110;11.522;2023-04-08T04:19:35;8.30;80.00
16521;DHT22;8373;48.110;11.522;2023-04-08T04:22:02;8.40;80.40
16521;DHT22;8373;48.110;11.522;2023-04-08T04:24:29;8.40;80.30
16521;DHT22;8373;48.110;11.522;2023-04-08T04:26:56;8.40;80.50
16521;DHT22;8373;48.110;11.522;2023-04-08T04:29:23;8.40;80.20
16521;DHT22;8373;48.110;11.522;2023-04-08T04:31:50;8.40;80.30
16521;DHT22;8373;48.110;11.522;2023-04-08T04:34:18;8.40;80.40
16521;DHT22;8373;48.110;11.522;2023-04-08T04:36:45;8.40;80.70
16521;DHT22;8373;48.110;11.522;2023-04-08T04:39:12;8.40;81.00
16521;DHT22;8373;48.110;11.522;2023-04-08T04:41:39;8.50;80.90
16521;DHT22;8373;48.110;11.522;2023-04-08T04:44:06;8.50;80.80
16521;DHT22;8373;48.110;11.522;2023-04-08T04:46:33;8.50;80.70
16521;DHT22;8373;48.110;11.522;2023-04-08T04:49:00;8.50;81.10
16521;DHT22;8373;48.110;11.522;2023-04-08T04:51:30;8.60;80.90
16521;DHT22;8373;48.110;11.522;2023-04-08T04:53:57;8.60;80.60
16521;DHT22;8373;48.110;11.522;2023-04-08T04:56:24;8.60;80.60
16521;DHT22;8373;48.110;11.522;2023-04-08T04:58:51;8.70;80.80
16521;DHT22;8373;48.110;11.522;2023-04-08T05:01:18;8.70;80.60
16521;DHT22;8373;48.110;11.522;2023-04-08T05:03:45;8.70;80.20
16521;DHT22;8373;48.110;11.522;2023-04-08T05:06:12;8.70;80.50
16521;DHT22;8373;48.110;11.522;2023-04-08T05:08:40;8.70;80.60
16521;DHT22;8373;48.110;11.522;2023-04-08T05:11:08;8.70;80.40
16521;DHT22;8373;48.110;11.522;2023-04-08T05:13:35;8.70;80.20
16521;DHT22;8373;48.110;11.522;2023-04-08T05:16:02;8.80;80.40
16521;DHT22;8373;48.110;11.522;2023-04-08T05:18:29;8.80;80.50
16521;DHT22;8373;48.110;11.522;2023-04-08T05:20:56;8.80;80.50
16521;DHT22;8373;48.110;11.522;2023-04-08T05:23:24;8.80;80.60
16521;DHT22;8373;48.110;11.522;2023-04-08T05:25:52;8.90;81.00
16521;DHT22;8373;48.110;11.522;2023-04-08T05:28:19;8.90;80.80
16521;DHT22;8373;48.110;11.522;2023-04-08T05:30:48;9.00;80.60
16521;DHT22;8373;48.110;11.522;2023-04-08T05:33:15;9.10;80.40
16521;DHT22;8373;48.110;11.522;2023-04-08T05:35:42;9.10;80.40
16521;DHT22;8373;48.110;11.522;2023-04-08T05:38:10;9.20;80.20
16521;DHT22;8373;48.110;11.522;2023-04-08T05:40:37;9.30;80.80
16521;DHT22;8373;48.110;11.522;2023-04-08T05:43:05;9.40;79.90
16521;DHT22;8373;48.110;11.522;2023-04-08T05:45:32;9.40;79.50
16521;DHT22;8373;48.110;11.522;2023-04-08T05:47:59;9.40;79.20
16521;DHT22;8373;48.110;11.522;2023-04-08T05:50:26;9.50;79.50
16521;DHT22;8373;48.110;11.522;2023-04-08T05:52:52;9.50;79.30
16521;DHT22;8373;48.110;11.522;2023-04-08T05:55:20;9.50;78.90
16521;DHT22;8373;48.110;11.522;2023-04-08T05:57:47;9.50;79.10
16521;DHT22;8373;48.110;11.522;2023-04-08T06:00:15;9.50;79.20
16521;DHT22;8373;48.110;11.522;2023-04-08T06:02:42;9.50;79.50
16521;DHT22;8373;48.110;11.522;2023-04-08T06:05:09;9.60;79.50
16521;DHT22;8373;48.110;11.522;2023-04-08T06:07:36;9.70;79.10
16521;DHT22;8373;48.110;11.522;2023-04-08T06:10:03;9.70;79.00
16521;DHT22;8373;48.110;11.522;2023-04-08T06:12:34;9.60;78.60
16521;DHT22;8373;48.110;11.522;2023-04-08T06:15:02;9.70;78.90
16521;DHT22;8373;48.110;11.522;2023-04-08T06:17:30;9.70;78.90
16521;DHT22;8373;48.110;11.522;2023-04-08T06:19:57;9.80;79.00
16521;DHT22;8373;48.110;11.522;2023-04-08T06:22:24;9.70;78.30
16521;DHT22;8373;48.110;11.522;2023-04-08T06:24:51;9.70;78.50
16521;DHT22;8373;48.110;11.522;2023-04-08T06:27:18;9.70;78.90
16521;DHT22;8373;48.110;11.522;2023-04-08T06:29:45;9.70;79.10
16521;DHT22;8373;48.110;11.522;2023-04-08T06:32:12;9.80;79.10
16521;DHT22;8373;48.110;11.522;2023-04-08T06:34:40;9.90;78.90
16521;DHT22;8373;48.110;11.522;2023-04-08T06:37:07;9.80;78.40
16521;DHT22;8373;48.110;11.522;2023-04-08T06:39:34;9.70;78.80
16521;DHT22;8373;48.110;11.522;2023-04-08T06:42:01;9.70;79.20
16521;DHT22;8373;48.110;11.522;2023-04-08T06:44:28;9.70;79.10
16521;DHT22;8373;48.110;11.522;2023-04-08T06:46:55;9.70;79.20
16521;DHT22;8373;48.110;11.522;2023-04-08T06:49:22;9.70;79.40
16521;DHT22;8373;48.110;11.522;2023-04-08T06:51:50;9.60;79.50
16521;DHT22;8373;48.110;11.522;2023-04-08T06:54:17;9.60;79.70
16521;DHT22;8373;48.110;11.522;2023-04-08T06:56:44;9.80;80.00
16521;DHT22;8373;48.110;11.522;2023-04-08T06:59:11;9.90;79.60
16521;DHT22;8373;48.110;11.522;2023-04-08T07:01:38;10.00;78.10
16521;DHT22;8373;48.110;11.522;2023-04-08T07:04:06;9.90;78.40
16521;DHT22;8373;48.110;11.522;2023-04-08T07:06:33;9.80;78.30
16521;DHT22;8373;48.110;11.522;2023-04-08T07:09:01;9.80;78.70
16521;DHT22;8373;48.110;11.522;2023-04-08T07:11:29;9.80;79.00
16521;DHT22;8373;48.110;11.522;2023-04-08T07:13:55;9.80;79.20
16521;DHT22;8373;48.110;11.522;2023-04-08T07:16:22;9.90;79.60
16521;DHT22;8373;48.110;11.522;2023-04-08T07:18:49;9.80;78.60
16521;DHT22;8373;48.110;11.522;2023-04-08T07:21:17;9.80;78.90
16521;DHT22;8373;48.110;11.522;2023-04-08T07:23:44;9.80;78.90
16521;DHT22;8373;48.110;11.522;2023-04-08T07:26:12;10.00;77.70
16521;DHT22;8373;48.110;11.522;2023-04-08T07:28:39;9.90;77.70
16521;DHT22;8373;48.110;11.522;2023-04-08T07:31:10;9.90;77.40
16521;DHT22;8373;48.110;11.522;2023-04-08T07:33:37;9.80;77.00
16521;DHT22;8373;48.110;11.522;2023-04-08T07:36:04;9.70;77.10
16521;DHT22;8373;48.110;11.522;2023-04-08T07:38:31;9.70;77.00
16521;DHT22;8373;48.110;11.522;2023-04-08T07:40:58;9.60;76.50
16521;DHT22;8373;48.110;11.522;2023-04-08T07:43:27;9.60;77.00
16521;DHT22;8373;48.110;11.522;2023-04-08T07:45:59;9.50;76.00
16521;DHT22;8373;48.110;11.522;2023-04-08T07:48:27;9.20;74.50
16521;DHT22;8373;48.110;11.522;2023-04-08T07:50:54;9.20;74.70
16521;DHT22;8373;48.110;11.522;2023-04-08T07:53:21;9.40;75.10
16521;DHT22;8373;48.110;11.522;2023-04-08T07:55:49;9.50;74.50
16521;DHT22;8373;48.110;11.522;2023-04-08T07:58:16;9.60;73.40
16521;DHT22;8373;48.110;11.522;2023-04-08T08:00:44;9.50;70.20
16521;DHT22;8373;48.110;11.522;2023-04-08T08:03:11;9.50;69.20
16521;DHT22;8373;48.110;11.522;2023-04-08T08:05:38;9.50;67.00
16521;DHT22;8373;48.110;11.522;2023-04-08T08:08:05;9.50;65.30
16521;DHT22;8373;48.110;11.522;2023-04-08T08:10:32;9.60;65.10
16521;DHT22;8373;48.110;11.522;2023-04-08T08:12:59;9.60;64.90
16521;DHT22;8373;48.110;11.522;2023-04-08T08:15:26;9.60;64.90
16521;DHT22;8373;48.110;11.522;2023-04-08T08:17:54;9.80;65.00
16521;DHT22;8373;48.110;11.522;2023-04-08T08:20:21;10.00;62.80
16521;DHT22;8373;48.110;11.522;2023-04-08T08:22:48;10.00;60.80
16521;DHT22;8373;48.110;11.522;2023-04-08T08:25:15;9.90;61.10
16521;DHT22;8373;48.110;11.522;2023-04-08T08:27:42;9.90;62.00
16521;DHT22;8373;48.110;11.522;2023-04-08T08:30:10;9.80;62.10
16521;DHT22;8373;48.110;11.522;2023-04-08T08:32:37;9.60;62.60
16521;DHT22;8373;48.110;11.522;2023-04-08T08:35:06;9.40;63.40
16521;DHT22;8373;48.110;11.522;2023-04-08T08:37:33;9.30;63.90
16521;DHT22;8373;48.110;11.522;2023-04-08T08:40:00;9.20;65.40
16521;DHT22;8373;48.110;11.522;2023-04-08T08:42:27;9.00;66.30
16521;DHT22;8373;48.110;11.522;2023-04-08T08:44:54;9.00;66.90
16521;DHT22;8373;48.110;11.522;2023-04-08T08:47:21;9.10;67.20
16521;DHT22;8373;48.110;11.522;2023-04-08T08:49:48;9.10;67.00
16521;DHT22;8373;48.110;11.522;2023-04-08T08:52:17;9.10;66.60
16521;DHT22;8373;48.110;11.522;2023-04-08T08:54:44;9.20;67.60
16521;DHT22;8373;48.110;11.522;2023-04-08T08:57:17;9.30;67.00
16521;DHT22;8373;48.110;11.522;2023-04-08T08:59:45;9.10;66.10
16521;DHT22;8373;48.110;11.522;2023-04-08T09:02:24;9.20;66.80
16521;DHT22;8373;48.110;11.522;2023-04-08T09:04:57;9.30;67.30
16521;DHT22;8373;48.110;11.522;2023-04-08T09:07:25;9.40;66.40
16521;DHT22;8373;48.110;11.522;2023-04-08T09:09:54;9.50;66.20
16521;DHT22;8373;48.110;11.522;2023-04-08T09:12:21;9.60;66.70
16521;DHT22;8373;48.110;11.522;2023-04-08T09:14:49;9.40;67.50
16521;DHT22;8373;48.110;11.522;2023-04-08T09:17:16;9.30;67.60
16521;DHT22;8373;48.110;11.522;2023-04-08T09:20:14;9.10;68.30
16521;DHT22;8373;48.110;11.522;2023-04-08T09:23:01;9.10;69.40
16521;DHT22;8373;48.110;11.522;2023-04-08T09:25:29;9.10;68.70
16521;DHT22;8373;48.110;11.522;2023-04-08T09:27:56;8.90;68.10
16521;DHT22;8373;48.110;11.522;2023-04-08T09:30:25;8.90;69.50
16521;DHT22;8373;48.110;11.522;2023-04-08T09:32:54;8.80;69.40
16521;DHT22;8373;48.110;11.522;2023-04-08T09:35:21;8.70;69.40
16521;DHT22;8373;48.110;11.522;2023-04-08T09:37:49;8.70;69.80
16521;DHT22;8373;48.110;11.522;2023-04-08T09:40:17;8.70;70.30
16521;DHT22;8373;48.110;11.522;2023-04-08T09:42:46;8.80;70.60
16521;DHT22;8373;48.110;11.522;2023-04-08T09:45:16;8.90;70.40
16521;DHT22;8373;48.110;11.522;2023-04-08T09:47:55;8.90;70.00
16521;DHT22;8373;48.110;11.522;2023-04-08T09:50:25;8.80;69.10
16521;DHT22;8373;48.110;11.522;2023-04-08T09:53:00;8.80;69.30
16521;DHT22;8373;48.110;11.522;2023-04-08T09:55:29;8.80;69.20
16521;DHT22;8373;48.110;11.522;2023-04-08T09:58:02;8.80;68.90
16521;DHT22;8373;48.110;11.522;2023-04-08T10:00:33;8.90;69.10
16521;DHT22;8373;48.110;11.522;2023-04-08T10:03:09;8.90;69.10
16521;DHT22;8373;48.110;11.522;2023-04-08T10:05:40;8.90;68.60
16521;DHT22;8373;48.110;11.522;2023-04-08T10:08:09;8.90;68.50
16521;DHT22;8373;48.110;11.522;2023-04-08T10:10:39;9.00;68.80
16521;DHT22;8373;48.110;11.522;2023-04-08T10:13:07;9.00;68.70
16521;DHT22;8373;48.110;11.522;2023-04-08T10:15:35;9.20;68.50
16521;DHT22;8373;48.110;11.522;2023-04-08T10:18:29;9.20;68.10
16521;DHT22;8373;48.110;11.522;2023-04-08T10:20:58;9.40;67.80
16521;DHT22;8373;48.110;11.522;2023-04-08T10:26:38;9.60;66.40
16521;DHT22;8373;48.110;11.522;2023-04-08T10:29:31;9.70;66.50
16521;DHT22;8373;48.110;11.522;2023-04-08T10:31:58;9.90;66.30
16521;DHT22;8373;48.110;11.522;2023-04-08T10:34:26;10.00;64.80
16521;DHT22;8373;48.110;11.522;2023-04-08T10:36:55;10.10;64.40
16521;DHT22;8373;48.110;11.522;2023-04-08T10:39:24;10.20;64.10
16521;DHT22;8373;48.110;11.522;2023-04-08T10:41:53;10.30;63.80
16521;DHT22;8373;48.110;11.522;2023-04-08T10:44:21;10.40;64.00
16521;DHT22;8373;48.110;11.522;2023-04-08T10:46:50;10.50;63.00
16521;DHT22;8373;48.110;11.522;2023-04-08T10:49:18;10.60;62.70
16521;DHT22;8373;48.110;11.522;2023-04-08T10:51:46;10.70;62.90
16521;DHT22;8373;48.110;11.522;2023-04-08T10:54:15;10.70;62.90
16521;DHT22;8373;48.110;11.522;2023-04-08T10:56:46;10.90;62.30
16521;DHT22;8373;48.110;11.522;2023-04-08T10:59:16;10.90;61.80
16521;DHT22;8373;48.110;11.522;2023-04-08T11:01:45;10.70;61.80
16521;DHT22;8373;48.110;11.522;2023-04-08T11:04:13;10.60;62.20
16521;DHT22;8373;48.110;11.522;2023-04-08T11:06:41;10.50;61.90
16521;DHT22;8373;48.110;11.522;2023-04-08T11:09:09;10.30;61.40
16521;DHT22;8373;48.110;11.522;2023-04-08T11:11:36;10.20;62.30
16521;DHT22;8373;48.110;11.522;2023-04-08T11:14:03;9.90;64.00
16521;DHT22;8373;48.110;11.522;2023-04-08T11:16:32;9.70;65.00
16521;DHT22;8373;48.110;11.522;2023-04-08T11:19:01;9.50;65.60
16521;DHT22;8373;48.110;11.522;2023-04-08T11:21:29;9.40;66.60
16521;DHT22;8373;48.110;11.522;2023-04-08T11:23:56;9.50;67.30
16521;DHT22;8373;48.110;11.522;2023-04-08T11:26:24;9.40;67.20
16521;DHT22;8373;48.110;11.522;2023-04-08T11:28:53;9.40;67.60
16521;DHT22;8373;48.110;11.522;2023-04-08T11:31:22;9.30;67.60
16521;DHT22;8373;48.110;11.522;2023-04-08T11:33:52;9.30;68.40
16521;DHT22;8373;48.110;11.522;2023-04-08T11:36:20;9.30;68.50
16521;DHT22;8373;48.110;11.522;2023-04-08T11:38:47;9.30;69.10
16521;DHT22;8373;48.110;11.522;2023-04-08T11:41:15;9.20;69.40
16521;DHT22;8373;48.110;11.522;2023-04-08T11:43:55;9.30;69.80
16521;DHT22;8373;48.110;11.522;2023-04-08T11:46:22;9.10;69.50
16521;DHT22;8373;48.110;11.522;2023-04-08T11:49:08;9.10;69.80
16521;DHT22;8373;48.110;11.522;2023-04-08T11:51:54;9.20;70.50
16521;DHT22;8373;48.110;11.522;2023-04-08T11:54:26;9.30;70.60
16521;DHT22;8373;48.110;11.522;2023-04-08T11:56:53;9.30;70.10
16521;DHT22;8373;48.110;11.522;2023-04-08T11:59:20;9.20;70.30
16521;DHT22;8373;48.110;11.522;2023-04-08T12:01:47;9.30;70.20
16521;DHT22;8373;48.110;11.522;2023-04-08T12:04:15;9.30;70.00
16521;DHT22;8373;48.110;11.522;2023-04-08T12:06:42;9.30;69.90
16521;DHT22;8373;48.110;11.522;2023-04-08T12:09:11;9.20;70.00
16521;DHT22;8373;48.110;11.522;2023-04-08T12:11:38;9.30;70.10
16521;DHT22;8373;48.110;11.522;2023-04-08T12:14:05;9.20;68.90
16521;DHT22;8373;48.110;11.522;2023-04-08T12:16:32;9.10;68.60
16521;DHT22;8373;48.110;11.522;2023-04-08T12:18:59;9.20;69.10
16521;DHT22;8373;48.110;11.522;2023-04-08T12:21:27;9.20;69.60
16521;DHT22;8373;48.110;11.522;2023-04-08T12:23:54;9.30;69.60
16521;DHT22;8373;48.110;11.522;2023-04-08T12:26:21;9.30;69.50
16521;DHT22;8373;48.110;11.522;2023-04-08T12:28:48;9.20;69.30
16521;DHT22;8373;48.110;11.522;2023-04-08T12:31:15;9.30;69.80
16521;DHT22;8373;48.110;11.522;2023-04-08T12:33:42;9.30;69.80
16521;DHT22;8373;48.110;11.522;2023-04-08T12:36:09;9.30;69.60
16521;DHT22;8373;48.110;11.522;2023-04-08T12:38:37;9.30;69.50
16521;DHT22;8373;48.110;11.522;2023-04-08T12:41:04;9.30;69.40
16521;DHT22;8373;48.110;11.522;2023-04-08T12:43:32;9.30;68.90
16521;DHT22;8373;48.110;11.522;2023-04-08T12:45:59;9.20;69.00
16521;DHT22;8373;48.110;11.522;2023-04-08T12:48:26;9.20;69.30
16521;DHT22;8373;48.110;11.522;2023-04-08T12:50:53;9.20;69.10
16521;DHT22;8373;48.110;11.522;2023-04-08T12:53:20;9.20;69.30
16521;DHT22;8373;48.110;11.522;2023-04-08T12:55:49;9.10;68.90
16521;DHT22;8373;48.110;11.522;2023-04-08T12:58:16;9.10;69.20
16521;DHT22;8373;48.110;11.522;2023-04-08T13:00:43;9.00;69.60
16521;DHT22;8373;48.110;11.522;2023-04-08T13:03:11;9.10;70.30
16521;DHT22;8373;48.110;11.522;2023-04-08T13:05:38;9.00;70.10
16521;DHT22;8373;48.110;11.522;2023-04-08T13:08:05;9.00;70.30
16521;DHT22;8373;48.110;11.522;2023-04-08T13:10:32;9.10;70.70
16521;DHT22;8373;48.110;11.522;2023-04-08T13:13:00;9.20;70.80
16521;DHT22;8373;48.110;11.522;2023-04-08T13:15:27;9.20;70.50
16521;DHT22;8373;48.110;11.522;2023-04-08T13:17:54;9.00;70.00
16521;DHT22;8373;48.110;11.522;2023-04-08T13:20:21;9.00;70.50
16521;DHT22;8373;48.110;11.522;2023-04-08T13:22:50;8.90;70.90
16521;DHT22;8373;48.110;11.522;2023-04-08T13:25:17;8.90;71.40
16521;DHT22;8373;48.110;11.522;2023-04-08T13:27:44;9.00;71.70
16521;DHT22;8373;48.110;11.522;2023-04-08T13:30:12;9.00;72.10
16521;DHT22;8373;48.110;11.522;2023-04-08T13:32:40;9.00;72.10
16521;DHT22;8373;48.110;11.522;2023-04-08T13:35:07;9.00;71.90
16521;DHT22;8373;48.110;11.522;2023-04-08T13:37:35;9.00;72.30
16521;DHT22;8373;48.110;11.522;2023-04-08T13:40:02;8.90;72.40
16521;DHT22;8373;48.110;11.522;2023-04-08T13:42:29;8.90;72.70
16521;DHT22;8373;48.110;11.522;2023-04-08T13:44:57;8.90;73.20
16521;DHT22;8373;48.110;11.522;2023-04-08T13:47:26;8.80;73.20
16521;DHT22;8373;48.110;11.522;2023-04-08T13:49:53;8.80;73.60
16521;DHT22;8373;48.110;11.522;2023-04-08T13:52:20;8.70;74.30
16521;DHT22;8373;48.110;11.522;2023-04-08T13:54:47;8.70;74.40
16521;DHT22;8373;48.110;11.522;2023-04-08T13:57:13;8.70;74.40
16521;DHT22;8373;48.110;11.522;2023-04-08T13:59:41;8.60;74.50
16521;DHT22;8373;48.110;11.522;2023-04-08T14:02:08;8.60;74.90
16521;DHT22;8373;48.110;11.522;2023-04-08T14:04:36;8.60;75.10
16521;DHT22;8373;48.110;11.522;2023-04-08T14:07:04;8.60;75.00
16521;DHT22;8373;48.110;11.522;2023-04-08T14:09:31;8.60;74.80
16521;DHT22;8373;48.110;11.522;2023-04-08T14:11:58;8.60;74.60
16521;DHT22;8373;48.110;11.522;2023-04-08T14:14:25;8.60;74.60
16521;DHT22;8373;48.110;11.522;2023-04-08T14:16:52;8.70;74.70
16521;DHT22;8373;48.110;11.522;2023-04-08T14:19:19;8.60;74.30
16521;DHT22;8373;48.110;11.522;2023-04-08T14:21:47;8.60;74.50
16521;DHT22;8373;48.110;11.522;2023-04-08T14:24:14;8.60;75.10
16521;DHT22;8373;48.110;11.522;2023-04-08T14:26:41;8.60;75.90
16521;DHT22;8373;48.110;11.522;2023-04-08T14:29:08;8.70;76.00
16521;DHT22;8373;48.110;11.522;2023-04-08T14:31:35;8.80;75.60
16521;DHT22;8373;48.110;11.522;2023-04-08T14:34:02;8.70;74.70
16521;DHT22;8373;48.110;11.522;2023-04-08T14:36:29;8.70;74.70
16521;DHT22;8373;48.110;11.522;2023-04-08T14:38:58;8.80;74.90
16521;DHT22;8373;48.110;11.522;2023-04-08T14:41:25;8.90;74.60
16521;DHT22;8373;48.110;11.522;2023-04-08T14:43:52;9.00;74.70
16521;DHT22;8373;48.110;11.522;2023-04-08T14:46:19;9.10;74.50
16521;DHT22;8373;48.110;11.522;2023-04-08T14:48:46;9.20;73.80
16521;DHT22;8373;48.110;11.522;2023-04-08T14:51:13;9.20;73.20
16521;DHT22;8373;48.110;11.522;2023-04-08T14:53:40;9.10;72.90
16521;DHT22;8373;48.110;11.522;2023-04-08T14:56:08;9.20;73.40
16521;DHT22;8373;48.110;11.522;2023-04-08T14:58:35;9.20;72.90
16521;DHT22;8373;48.110;11.522;2023-04-08T15:01:03;9.30;72.90
16521;DHT22;8373;48.110;11.522;2023-04-08T15:03:30;9.20;72.30
16521;DHT22;8373;48.110;11.522;2023-04-08T15:05:57;9.20;72.60
16521;DHT22;8373;48.110;11.522;2023-04-08T15:08:24;9.30;72.40
16521;DHT22;8373;48.110;11.522;2023-04-08T15:10:51;9.30;71.70
16521;DHT22;8373;48.110;11.522;2023-04-08T15:13:19;9.30;71.40
16521;DHT22;8373;48.110;11.522;2023-04-08T15:15:47;9.30;71.20
16521;DHT22;8373;48.110;11.522;2023-04-08T15:18:14;9.30;70.90
16521;DHT22;8373;48.110;11.522;2023-04-08T15:20:41;9.30;71.60
16521;DHT22;8373;48.110;11.522;2023-04-08T15:23:08;9.30;71.90
16521;DHT22;8373;48.110;11.522;2023-04-08T15:25:35;9.30;71.40
16521;DHT22;8373;48.110;11.522;2023-04-08T15:28:02;9.40;71.40
16521;DHT22;8373;48.110;11.522;2023-04-08T15:30:31;9.40;71.40
16521;DHT22;8373;48.110;11.522;2023-04-08T15:33:01;9.50;71.40
16521;DHT22;8373;48.110;11.522;2023-04-08T15:35:28;9.30;70.80
16521;DHT22;8373;48.110;11.522;2023-04-08T15:37:55;9.20;71.30
16521;DHT22;8373;48.110;11.522;2023-04-08T15:40:22;9.10;71.40
16521;DHT22;8373;48.110;11.522;2023-04-08T15:42:48;9.10;72.10
16521;DHT22;8373;48.110;11.522;2023-04-08T15:45:16;9.00;71.90
16521;DHT22;8373;48.110;11.522;2023-04-08T15:47:44;9.00;72.40
16521;DHT22;8373;48.110;11.522;2023-04-08T15:50:11;9.00;72.70
16521;DHT22;8373;48.110;11.522;2023-04-08T15:52:39;9.10;73.10
16521;DHT22;8373;48.110;11.522;2023-04-08T15:55:07;9.10;72.80